Latest Weather Observations for Kuitpo

IDS60901

Issued at 6:51 pm CST Friday 31 July 2015 (issued every 10 minutes, with the page automatically refreshed every 10 minutes)

About weather observations | Map of Adelaide area stations | Latest observations for Adelaide area | Other Formats
Station Details ID: 023887 Name: KUITPO FOREST RESERVE Lat: -35.17 Lon: 138.68 Height: 365.0 m
Data from the previous 72 hours. | See also: Recent months at Kuitpo
Date/Time
CST
Tmp

°C
App
Tmp
°C
Dew
Point
°C
Rel
Hum
%
Delta-T

°C
Wind Press
QNH
hPa
Press
MSL
hPa
Rain
since
9 am
mm
Dir
 
Spd
km/h
Gust
km/h
Spd
kts
Gust
kts
31/06:30pm 11.1 8.5 7.8 80 1.6 NW 11 15 6 8 1013.2 1013.5 0.0
31/06:00pm 11.1 8.1 7.6 79 1.7 NNW 13 20 7 11 1013.1 1013.4 0.0
31/05:30pm 11.2 7.8 7.5 78 1.8 NW 15 20 8 11 1013.0 1013.3 0.0
31/05:00pm 11.1 7.6 7.4 78 1.8 NW 15 24 8 13 1013.4 1013.6 0.0
31/04:30pm 11.1 7.3 7.4 78 1.8 NW 17 26 9 14 1013.9 1014.2 0.0
31/04:00pm 11.4 7.2 7.3 76 2.0 NW 19 32 10 17 1014.0 1014.3 0.0
31/03:30pm 11.6 6.7 6.9 73 2.3 NW 22 33 12 18 1014.2 1014.5 0.0
31/03:00pm 11.9 7.3 6.6 70 2.6 NW 20 32 11 17 1014.2 1014.5 0.0
31/02:30pm 11.7 5.5 6.0 68 2.7 NW 28 44 15 24 1014.1 1014.4 0.0
31/02:00pm 11.8 6.7 6.1 68 2.7 NW 22 35 12 19 1014.8 1015.1 0.0
31/01:30pm 11.0 5.8 5.3 68 2.7 NW 22 37 12 20 1015.2 1015.5 0.0
31/01:00pm 10.3 5.4 5.1 70 2.4 NW 20 35 11 19 1015.7 1016.0 0.0
31/12:30pm 10.4 5.4 4.5 67 2.7 NNW 20 37 11 20 1016.5 1016.8 0.0
31/12:00pm 9.7 5.3 4.5 70 2.4 NNW 17 37 9 20 1017.5 1017.8 0.0
31/11:30am 9.3 4.4 4.1 70 2.3 NW 19 32 10 17 1018.0 1018.3 0.0
31/11:00am 9.2 4.2 3.8 69 2.4 NNW 19 28 10 15 1018.4 1018.8 0.0
31/10:30am 9.4 5.4 4.8 73 2.1 NNW 15 22 8 12 1018.8 1019.2 0.0
31/10:00am 8.5 6.0 4.9 78 1.6 NNW 7 11 4 6 1018.9 1019.3 0.0
31/09:30am 7.8 4.8 4.0 77 1.7 NNW 9 13 5 7 1019.4 1019.7 0.0
31/09:00am 6.7 4.1 4.2 84 1.1 N 7 13 4 7 1019.8 1020.1 1.4
31/08:30am 5.5 2.1 4.0 90 0.6 NNW 11 17 6 9 1019.8 1020.1 1.4
31/08:00am 3.8 0.6 2.8 93 0.4 N 9 11 5 6 1020.0 1020.3 1.4
31/07:30am 3.5 0.2 2.2 91 0.5 NNE 9 13 5 7 1019.9 1020.2 1.4
31/07:00am 3.8 0.5 2.5 91 0.5 NNE 9 13 5 7 1019.8 1020.1 1.4
31/06:30am 4.2 0.6 2.9 91 0.5 NE 11 15 6 8 1019.6 1019.9 1.4
31/06:00am 4.3 0.3 3.1 92 0.5 NE 13 19 7 10 1019.5 1019.8 1.4
31/05:30am 3.9 -0.1 2.9 93 0.4 NE 13 17 7 9 1019.5 1019.8 1.4
31/05:00am 4.2 0.6 2.7 90 0.6 NE 11 13 6 7 1019.2 1019.5 1.4
31/04:30am 4.5 0.9 3.0 90 0.6 ENE 11 13 6 7 1019.2 1019.5 1.4
31/04:00am 5.0 1.8 3.3 89 0.7 ENE 9 11 5 6 1019.4 1019.7 1.4
31/03:30am 5.3 2.5 3.2 86 0.9 E 7 9 4 5 1019.7 1020.0 1.4
31/03:00am 5.9 3.3 3.4 84 1.1 E 6 7 3 4 1020.2 1020.5 1.4
31/02:30am 5.9 3.2 3.6 85 1.0 E 7 9 4 5 1020.1 1020.4 1.4
31/02:00am 6.0 3.5 3.5 84 1.1 E 6 7 3 4 1020.2 1020.5 1.4
31/01:30am 6.2 3.7 3.9 85 1.0 ESE 6 7 3 4 1020.4 1020.7 1.4
31/01:00am 6.6 3.5 3.6 81 1.3 SSE 9 11 5 6 1020.6 1020.9 1.4
31/12:30am 6.5 3.3 3.3 80 1.4 SSE 9 11 5 6 1020.6 1020.9 1.4
31/12:00am 6.6 3.9 3.8 82 1.2 SSE 7 11 4 6 1020.6 1020.9 1.4
 
Date/Time
CST
Tmp

°C
App
Tmp
°C
Dew
Point
°C
Rel
Hum
%
Delta-T

°C
Wind Press
QNH
hPa
Press
MSL
hPa
Rain
since
9 am
mm
Dir
 
Spd
km/h
Gust
km/h
Spd
kts
Gust
kts
30/11:30pm 6.5 3.5 4.2 85 1.0 SSE 9 13 5 7 1020.6 1020.9 1.4
30/11:00pm 6.9 4.0 4.7 86 1.0 SSE 9 13 5 7 1020.6 1020.9 1.4
30/10:30pm 6.9 3.8 5.5 91 0.6 SSW 11 22 6 12 1020.9 1021.3 1.4
30/10:00pm 7.0 3.6 6.1 94 0.4 S 13 17 7 9 1020.4 1020.7 1.4
30/09:30pm 7.6 4.7 6.7 94 0.4 S 11 19 6 10 1020.5 1020.8 1.4
30/09:00pm 8.0 5.3 7.2 95 0.4 S 11 17 6 9 1020.1 1020.4 1.4
30/08:30pm 8.3 4.9 7.7 96 0.3 SSW 15 22 8 12 1019.6 1019.9 1.4
30/08:00pm 8.8 6.0 8.5 98 0.1 SSW 13 20 7 11 1019.5 1019.8 1.4
30/07:30pm 8.9 6.5 8.6 98 0.1 SW 11 19 6 10 1018.9 1019.3 1.2
30/07:00pm 9.2 6.9 8.9 98 0.1 SW 11 17 6 9 1018.6 1019.0 1.2
30/06:30pm 9.5 6.1 9.2 98 0.2 SW 17 32 9 17 1018.1 1018.4 1.2
30/06:00pm 9.8 5.5 9.3 97 0.3 WSW 22 39 12 21 1017.6 1017.9 0.8
30/05:30pm 10.7 6.6 10.1 96 0.3 WNW 22 35 12 19 1017.0 1017.3 0.4
30/05:00pm 10.7 6.9 9.8 94 0.5 WNW 20 33 11 18 1016.8 1017.1 0.4
30/04:30pm 10.3 5.6 9.2 93 0.6 WNW 24 37 13 20 1016.2 1016.5 0.4
30/04:00pm 10.1 5.8 9.5 96 0.3 WNW 22 39 12 21 1015.8 1016.1 0.4
30/03:30pm 9.5 4.7 8.7 95 0.4 WNW 24 44 13 24 1015.6 1015.9 0.4
30/03:16pm 9.4 3.7 8.5 94 0.4 WNW 28 46 15 25 1015.6 1015.9 0.2
30/03:00pm 9.8 4.2 8.9 94 0.5 NW 28 44 15 24 1015.3 1015.6 0.2
30/02:30pm 9.7 4.0 8.5 92 0.6 WNW 28 54 15 29 1015.5 1015.8 0.2
30/02:00pm 10.0 2.5 6.5 79 1.7 WNW 35 57 19 31 1015.4 1015.7 0.2
30/01:30pm 11.0 3.5 4.7 65 2.9 NW 33 52 18 28 1014.9 1015.2 0.2
30/01:00pm 11.0 4.0 4.0 62 3.2 NW 30 48 16 26 1015.3 1015.6 0.2
30/12:30pm 10.5 2.4 3.5 62 3.1 NW 35 56 19 30 1015.2 1015.5 0.2
30/12:00pm 10.4 3.2 3.2 61 3.2 NW 30 48 16 26 1015.4 1015.7 0.2
30/11:30am 10.7 2.8 2.5 57 3.6 NW 33 54 18 29 1015.8 1016.1 0.2
30/11:00am 11.2 2.9 2.0 53 4.0 NNW 35 59 19 32 1015.8 1016.1 0.2
30/10:30am 10.5 2.5 1.9 55 3.7 NNW 33 65 18 35 1015.8 1016.1 0.2
30/10:00am 9.5 2.2 2.4 61 3.1 NNW 30 50 16 27 1015.4 1015.7 0.2
30/09:30am 9.7 1.8 0.9 54 3.7 NNW 32 56 17 30 1016.0 1016.3 0.0
30/09:00am 9.9 2.0 1.0 54 3.7 NNW 32 57 17 31 1015.9 1016.2 0.0
30/08:31am 8.9 1.7 0.6 56 3.4 NNW 28 46 15 25 1016.3 1016.6 0.0
30/08:30am 8.8 1.2 0.5 56 3.4 NNW 30 46 16 25 1016.3 1016.6 0.0
30/08:00am 8.9 0.9 0.1 54 3.6 NNW 32 59 17 32 1016.4 1016.7 0.0
30/07:30am 8.8 1.1 0.0 54 3.6 NNW 30 54 16 29 1016.5 1016.8 0.0
30/07:00am 8.9 1.6 -0.1 53 3.6 NNW 28 46 15 25 1016.5 1016.8 0.0
30/06:30am 8.6 1.3 -0.2 54 3.5 NNW 28 46 15 25 1016.7 1017.0 0.0
30/06:25am 8.9 1.6 -0.1 53 3.6 NNW 28 46 15 25 1016.7 1017.0 0.0
30/06:00am 8.6 2.5 0.3 56 3.4 N 22 37 12 20 1016.7 1017.0 0.0
30/05:30am 8.5 2.4 0.7 58 3.2 N 22 43 12 23 1016.7 1017.0 0.0
30/05:00am 8.7 3.2 0.7 57 3.3 N 19 30 10 16 1017.6 1017.9 0.0
30/04:30am 9.2 3.1 0.4 54 3.6 N 22 43 12 23 1018.6 1019.0 0.0
30/04:00am 9.3 2.5 0.5 54 3.6 NNW 26 39 14 21 1019.1 1019.4 0.0
30/03:46am 9.5 2.2 0.1 52 3.9 NNW 28 50 15 27 1018.9 1019.3 0.0
30/03:30am 9.1 3.4 0.6 55 3.5 NNW 20 35 11 19 1019.1 1019.4 0.0
30/03:00am 9.2 2.3 0.1 53 3.7 NNW 26 43 14 23 1019.4 1019.7 0.0
30/02:30am 9.6 2.3 0.0 51 3.9 NNW 28 50 15 27 1019.7 1020.0 0.0
30/02:00am 9.6 1.9 -0.3 50 4.0 NW 30 43 16 23 1020.2 1020.5 0.0
30/01:35am 9.5 2.2 -0.1 51 3.9 NNW 28 46 15 25 1020.1 1020.4 0.0
30/01:30am 9.4 2.8 -0.2 51 3.9 NNW 24 50 13 27 1020.2 1020.5 0.0
30/01:09am 9.7 2.3 -0.5 49 4.1 NNW 28 46 15 25 1020.6 1020.9 0.0
30/01:00am 9.5 2.6 0.1 52 3.9 NW 26 43 14 23 1020.7 1021.0 0.0
30/12:30am 9.4 2.9 0.1 52 3.8 NW 24 43 13 23 1020.8 1021.2 0.0
30/12:00am 9.6 2.7 0.0 51 3.9 NW 26 43 14 23 1021.2 1021.6 0.0
 
Date/Time
CST
Tmp

°C
App
Tmp
°C
Dew
Point
°C
Rel
Hum
%
Delta-T

°C
Wind Press
QNH
hPa
Press
MSL
hPa
Rain
since
9 am
mm
Dir
 
Spd
km/h
Gust
km/h
Spd
kts
Gust
kts
29/11:30pm 9.2 3.1 0.4 54 3.6 NW 22 43 12 23 1021.5 1021.9 0.0
29/11:00pm 9.5 3.1 0.7 54 3.7 NW 24 37 13 20 1022.1 1022.4 0.0
29/10:30pm 9.0 3.4 1.0 57 3.3 NNW 20 35 11 19 1022.4 1022.7 0.0
29/10:00pm 8.7 3.4 1.6 61 3.0 NNW 19 32 10 17 1022.5 1022.8 0.0
29/09:30pm 8.6 3.1 1.7 62 2.9 NNW 20 35 11 19 1022.4 1022.7 0.0
29/09:00pm 8.7 3.5 2.5 65 2.7 NNW 19 33 10 18 1022.9 1023.2 0.0
29/08:30pm 8.6 4.3 3.0 68 2.4 NNW 15 24 8 13 1023.0 1023.3 0.0
29/08:00pm 8.6 3.5 2.8 67 2.5 NNW 19 35 10 19 1023.0 1023.3 0.0
29/07:30pm 8.7 3.5 2.5 65 2.7 NNW 19 32 10 17 1023.1 1023.5 0.0
29/07:00pm 8.8 3.4 2.6 65 2.7 NNW 20 28 11 15 1023.1 1023.5 0.0
29/06:30pm 8.6 3.3 2.8 67 2.5 NNW 20 33 11 18 1022.9 1023.2 0.0
29/06:00pm 8.5 3.4 3.1 69 2.3 NNW 19 33 10 18 1022.9 1023.2 0.0
29/05:30pm 8.5 3.8 3.1 69 2.3 N 17 28 9 15 1022.8 1023.1 0.0
29/05:00pm 8.9 4.6 3.3 68 2.5 N 15 24 8 13 1023.0 1023.3 0.0
29/04:30pm 9.8 4.7 3.3 64 2.9 NNW 19 30 10 16 1023.6 1024.0 0.0
29/04:00pm 10.1 4.0 2.5 59 3.3 NNW 24 37 13 20 1023.7 1024.1 0.0
29/03:30pm 10.9 5.5 2.7 57 3.6 NNW 20 35 11 19 1023.9 1024.3 0.0
29/03:00pm 11.2 6.1 2.8 56 3.7 NW 19 30 10 16 1024.2 1024.6 0.0
29/02:30pm 10.2 4.1 2.6 59 3.3 NW 24 35 13 19 1024.4 1024.8 0.0
29/02:00pm 9.3 2.4 2.6 63 2.9 NW 28 44 15 24 1024.6 1025.0 0.0
29/01:56pm 9.4 2.5 2.5 62 3.0 NW 28 44 15 24 1024.7 1025.1 0.0
29/01:30pm 9.4 4.7 3.2 65 2.7 NNW 17 26 9 14 1024.9 1025.2 0.0
29/01:00pm 8.9 3.7 3.3 68 2.5 NW 20 37 11 20 1026.0 1026.4 0.0
29/12:30pm 8.7 2.9 2.5 65 2.6 NNW 22 39 12 21 1026.3 1026.7 0.0
29/12:00pm 8.9 3.5 2.7 65 2.7 NNW 20 32 11 17 1027.0 1027.4 0.0
29/11:30am 8.5 3.8 2.9 68 2.4 NNW 17 28 9 15 1027.8 1028.2 0.0
29/11:00am 8.1 3.3 2.8 69 2.3 NNW 17 26 9 14 1028.2 1028.6 0.0
29/10:30am 8.4 3.6 2.6 67 2.5 NNW 17 30 9 16 1028.5 1028.9 0.0
29/10:00am 7.9 3.1 2.6 69 2.3 NNW 17 26 9 14 1028.8 1029.2 0.0
29/09:30am 7.4 2.2 2.3 70 2.1 NNW 19 32 10 17 1029.1 1029.5 0.0
29/09:00am 7.3 2.8 2.2 70 2.1 NNW 15 22 8 12 1029.2 1029.6 0.0
29/08:30am 7.4 2.5 2.1 69 2.2 NNW 17 28 9 15 1029.0 1029.4 0.0
29/08:00am 7.3 2.4 1.8 68 2.3 NNW 17 26 9 14 1028.9 1029.3 0.0
29/07:30am 7.6 2.3 1.7 66 2.4 NNW 19 35 10 19 1029.5 1029.9 0.0
29/07:00am 6.5 2.3 1.8 72 1.9 N 13 20 7 11 1028.6 1029.0 0.0
29/06:30am 6.1 2.4 2.2 76 1.6 NNE 11 19 6 10 1028.1 1028.5 0.0
29/06:00am 6.6 2.5 2.1 73 1.9 N 13 22 7 12 1028.2 1028.6 0.0
29/05:30am 6.3 2.6 2.2 75 1.7 N 11 19 6 10 1028.4 1028.8 0.0
29/05:00am 6.6 2.5 2.3 74 1.8 NNW 13 17 7 9 1029.0 1029.4 0.0
29/04:30am 5.8 2.1 2.3 78 1.4 N 11 15 6 8 1029.0 1029.4 0.0
29/04:00am 5.4 1.8 2.9 84 1.1 NNE 11 17 6 9 1028.9 1029.3 0.0
29/03:30am 5.4 1.5 3.3 86 0.9 NNE 13 19 7 10 1028.6 1029.0 0.0
29/03:00am 5.5 1.6 3.5 87 0.8 NNE 13 19 7 10 1029.3 1029.7 0.0
29/02:30am 5.6 1.9 4.2 91 0.6 NNE 13 20 7 11 1029.3 1029.7 0.0
29/02:00am 5.6 1.9 4.7 94 0.4 NNE 13 19 7 10 1029.5 1029.9 0.0
29/01:30am 5.6 1.6 4.7 94 0.4 NE 15 22 8 12 1029.8 1030.2 0.0
29/01:00am 5.7 2.4 4.8 94 0.4 NNE 11 17 6 9 1030.4 1030.9 0.0
29/12:30am 5.9 2.2 4.7 92 0.5 NE 13 17 7 9 1030.9 1031.3 0.0
29/12:00am 6.1 2.4 4.6 90 0.7 NE 13 20 7 11 1030.8 1031.2 0.0
 
Date/Time
CST
Tmp

°C
App
Tmp
°C
Dew
Point
°C
Rel
Hum
%
Delta-T

°C
Wind Press
QNH
hPa
Press
MSL
hPa
Rain
since
9 am
mm
Dir
 
Spd
km/h
Gust
km/h
Spd
kts
Gust
kts
28/11:30pm 6.8 2.4 4.8 87 0.9 NE 17 22 9 12 1031.2 1031.6 0.0
28/11:00pm 6.4 2.7 4.7 89 0.8 NE 13 19 7 10 1031.6 1032.0 0.0
28/10:30pm 6.4 2.4 4.9 90 0.7 NE 15 24 8 13 1031.6 1032.0 0.0
28/10:00pm 6.3 3.2 5.4 94 0.4 NE 11 17 6 9 1032.2 1032.6 0.0
28/09:30pm 6.2 3.4 5.2 93 0.4 NE 9 13 5 7 1032.4 1032.9 0.0
28/09:00pm 6.6 3.5 5.6 93 0.4 ENE 11 15 6 8 1032.4 1032.9 0.0
28/08:30pm 6.8 5.0 5.3 90 0.7 NNE 4 9 2 5 1032.7 1033.2 0.0
28/08:00pm 7.2 6.2 5.7 90 0.7 CALM 0 0 0 0 1032.7 1033.2 0.0
28/07:30pm 7.3 6.3 5.8 90 0.7 CALM 0 0 0 0 1032.6 1033.1 0.0
28/07:00pm 7.6 5.5 5.9 89 0.8 WNW 6 7 3 4 1032.7 1033.2 0.0

Latest Capital City Observations: Canberra | Sydney | Melbourne | Brisbane | Adelaide | Perth | Hobart | Darwin

Other Formats:

Comma delimited format used in spreadsheet applications
http://www.bom.gov.au/fwo/IDS60901/IDS60901.94683.axf

JavaScript Object Notation format (JSON) in row-major order
http://www.bom.gov.au/fwo/IDS60901/IDS60901.94683.json